KHPT/HPT METAR and TAF weather

Enter ICAO airport designator
Station Type Date Time Source
KHPT METAR 2021/07/30 07:15 UTC NOAA

KHPT 300715Z AUTO 03005KT 10SM SCT048 17/16 A3011 RMK AO2


Station Type Date Time Source
KHPT Decoded METAR 2021/07/30 07:15 UTC NOAA

Station name not available
Jul 30, 2021 - 03:15 AM EDT / 2021.07.30 0715 UTC
Wind: from the NNE (030 degrees) at 6 MPH (5 KT):0
Visibility: 10 mile(s):0
Sky conditions: partly cloudy
Temperature: 62 F (17 C)
Dew Point: 60 F (16 C)
Relative Humidity: 93%
Pressure (altimeter): 30.11 in. Hg (1019 hPa)
ob: KHPT 300715Z AUTO 03005KT 10SM SCT048 17/16 A3011 RMK AO2
cycle: 7

Station Type Date Time Source
KHPT TAF UTC NOAA

Error!

Example: see airport list